Time;durP1;ratioP1;P1;durP2;ratioP2;P2;SDS_P1;SDS_P2;PMS_P1;PMS_P2;Temp;Humidity;BMP_temperature;BMP_pressure;BME280_temperature;BME280_humidity;BME280_pressure;Samples;Min_cycle;Max_cycle;Signal;HPM_P1;HPM_P2
2023/03/30 00:00:21;;;;;;;20.25;12.30;;;11.20;99.90;;;;;;5074212;28;20530;-20
2023/03/30 00:02:49;;;;;;;21.75;14.25;;;11.20;99.90;;;;;;5074209;28;20052;-20
2023/03/30 00:05:16;;;;;;;24.73;13.95;;;11.10;99.90;;;;;;5073607;28;20102;-20
2023/03/30 00:07:46;;;;;;;22.60;14.52;;;11.00;99.90;;;;;;5073218;28;20495;-20
2023/03/30 00:10:16;;;;;;;20.17;15.98;;;10.90;99.90;;;;;;5073621;28;20094;-20
2023/03/30 00:12:44;;;;;;;23.02;14.45;;;10.80;99.90;;;;;;5072718;28;20063;-20
2023/03/30 00:15:11;;;;;;;24.38;15.02;;;10.70;99.90;;;;;;5073367;28;20044;-20
2023/03/30 00:17:37;;;;;;;19.50;13.32;;;10.80;99.90;;;;;;5074269;28;20044;-20
2023/03/30 00:20:07;;;;;;;20.58;14.50;;;10.60;99.90;;;;;;5074259;28;20128;-20
2023/03/30 00:22:33;;;;;;;18.17;14.27;;;10.70;99.90;;;;;;5072302;28;20526;-20
2023/03/30 00:24:59;;;;;;;21.17;13.68;;;10.70;99.90;;;;;;5073411;28;20037;-20
2023/03/30 00:27:25;;;;;;;19.58;13.73;;;10.80;99.90;;;;;;5073304;28;20071;-20
2023/03/30 00:29:50;;;;;;;19.05;14.05;;;10.90;99.90;;;;;;5074782;28;20082;-20
2023/03/30 00:32:16;;;;;;;17.70;13.82;;;10.90;99.90;;;;;;5076246;28;20145;-20
2023/03/30 00:34:42;;;;;;;19.92;13.23;;;10.80;99.90;;;;;;5077665;28;20048;-20
2023/03/30 00:37:08;;;;;;;18.13;12.52;;;10.80;99.90;;;;;;5075826;28;20502;-20
2023/03/30 00:39:34;;;;;;;16.67;11.95;;;10.90;99.90;;;;;;5077117;28;20106;-20
2023/03/30 00:42:00;;;;;;;19.75;11.65;;;10.90;99.90;;;;;;5077193;28;20106;-20
2023/03/30 00:45:03;;;;;;;17.95;11.85;;;11.00;99.90;;;;;;5077152;28;20045;-20
2023/03/30 00:47:29;;;;;;;18.02;11.15;;;11.10;99.90;;;;;;5077015;28;20060;-20
2023/03/30 00:49:55;;;;;;;21.48;10.40;;;11.00;99.90;;;;;;5077115;28;20051;-21
2023/03/30 00:52:23;;;;;;;13.63;9.98;;;11.20;99.90;;;;;;5075825;28;20051;-21
2023/03/30 00:54:52;;;;;;;16.08;9.05;;;11.30;99.90;;;;;;5076923;28;20053;-21
2023/03/30 00:57:21;;;;;;;11.32;8.50;;;11.30;99.90;;;;;;5076941;28;20102;-21
2023/03/30 00:59:48;;;;;;;14.52;9.90;;;11.40;99.90;;;;;;5075645;28;20086;-21
2023/03/30 01:02:14;;;;;;;12.25;7.85;;;11.60;99.90;;;;;;5076769;28;20041;-21
2023/03/30 01:04:40;;;;;;;10.50;7.75;;;11.60;99.90;;;;;;5076621;28;20070;-21
2023/03/30 01:07:11;;;;;;;13.38;7.30;;;11.70;99.90;;;;;;5076724;28;20056;-21
2023/03/30 01:09:38;;;;;;;13.93;7.85;;;11.70;99.90;;;;;;5076744;28;20059;-21
2023/03/30 01:12:04;;;;;;;13.63;6.85;;;11.80;99.90;;;;;;5076902;28;20557;-21
2023/03/30 01:14:31;;;;;;;11.25;6.68;;;11.80;99.90;;;;;;5076581;28;20044;-21
2023/03/30 01:17:25;;;;;;;10.45;7.07;;;11.80;99.90;;;;;;5076449;28;20051;-21
2023/03/30 01:20:08;;;;;;;11.13;6.93;;;11.80;99.90;;;;;;5077115;28;20383;-21
2023/03/30 01:23:02;;;;;;;13.25;6.88;;;11.70;99.90;;;;;;5076329;28;20151;-21
2023/03/30 01:25:50;;;;;;;12.60;6.70;;;11.70;99.90;;;;;;5059108;28;20048;-21
2023/03/30 01:28:51;;;;;;;12.82;7.35;;;11.70;99.90;;;;;;5075179;28;20475;-21
2023/03/30 01:31:42;;;;;;;9.95;7.05;;;11.70;99.90;;;;;;5076300;28;20138;-21
2023/03/30 01:34:46;;;;;;;11.95;6.13;;;11.70;99.90;;;;;;5076789;28;20399;-21
2023/03/30 01:37:37;;;;;;;11.70;6.78;;;11.70;99.90;;;;;;5076157;28;20506;-21
2023/03/30 01:40:17;;;;;;;10.32;6.82;;;11.70;99.90;;;;;;5074445;28;20048;-21
2023/03/30 01:42:55;;;;;;;8.65;5.68;;;11.70;99.90;;;;;;5076126;28;20060;-21
2023/03/30 01:45:21;;;;;;;17.90;6.72;;;11.80;99.90;;;;;;5076631;28;20135;-21
2023/03/30 01:48:17;;;;;;;9.90;6.20;;;11.70;99.90;;;;;;5074958;28;20067;-21
2023/03/30 01:50:51;;;;;;;8.80;5.82;;;11.80;99.90;;;;;;5076084;28;20109;-21
2023/03/30 01:53:46;;;;;;;9.77;6.00;;;11.80;99.90;;;;;;5075254;28;20052;-21
2023/03/30 01:56:29;;;;;;;11.95;6.10;;;11.70;99.90;;;;;;5074906;28;20574;-21
2023/03/30 01:59:28;;;;;;;13.10;5.43;;;11.80;99.90;;;;;;5059068;28;20040;-21
2023/03/30 02:01:59;;;;;;;12.88;5.63;;;11.70;99.90;;;;;;5075644;28;20067;-21
2023/03/30 02:04:26;;;;;;;10.15;5.82;;;11.60;99.90;;;;;;5075712;28;20049;-21
2023/03/30 02:06:57;;;;;;;12.32;5.60;;;11.60;99.90;;;;;;5058459;28;20122;-21
2023/03/30 02:09:24;;;;;;;10.38;5.25;;;11.60;99.90;;;;;;5075824;28;20056;-21
2023/03/30 02:11:52;;;;;;;9.75;5.22;;;11.50;99.90;;;;;;5075500;28;20123;-21
2023/03/30 02:14:22;;;;;;;9.60;4.50;;;11.50;99.90;;;;;;5076030;28;20048;-21
2023/03/30 02:16:54;;;;;;;10.45;5.43;;;11.50;99.90;;;;;;5075563;28;20409;-21
2023/03/30 02:19:20;;;;;;;9.10;6.07;;;11.50;99.90;;;;;;5075462;28;20045;-21
2023/03/30 02:21:46;;;;;;;8.48;5.22;;;11.60;99.90;;;;;;5075028;28;20562;-21
2023/03/30 02:24:21;;;;;;;11.60;4.90;;;11.70;99.90;;;;;;5074910;28;20047;-21
2023/03/30 02:26:50;;;;;;;10.40;4.20;;;11.60;99.90;;;;;;5075570;28;20112;-21
2023/03/30 02:29:17;;;;;;;11.43;5.18;;;11.70;99.90;;;;;;5073856;28;20048;-21
2023/03/30 02:31:46;;;;;;;9.10;4.60;;;11.70;99.90;;;;;;5073966;28;20367;-21
2023/03/30 02:34:20;;;;;;;15.23;4.75;;;11.70;99.90;;;;;;5057431;28;20502;-21
2023/03/30 02:37:08;;;;;;;6.55;3.65;;;11.80;99.90;;;;;;5075086;28;20083;-22
2023/03/30 02:40:16;;;;;;;7.97;3.63;;;11.80;99.90;;;;;;5075002;28;20044;-21
2023/03/30 02:42:52;;;;;;;9.07;4.43;;;11.80;99.90;;;;;;5073922;28;20498;-21
2023/03/30 02:45:28;;;;;;;10.10;4.38;;;11.80;99.90;;;;;;5074868;28;20048;-22
2023/03/30 02:48:19;;;;;;;10.25;4.13;;;11.70;99.90;;;;;;5075606;28;20048;-21
2023/03/30 02:51:28;;;;;;;11.52;4.22;;;11.70;99.90;;;;;;5075562;28;20429;-22
2023/03/30 02:54:21;;;;;;;6.85;3.47;;;11.80;99.90;;;;;;5073519;28;20074;-22
2023/03/30 02:56:59;;;;;;;9.80;4.13;;;11.80;99.90;;;;;;5073631;28;20136;-21
2023/03/30 02:59:43;;;;;;;9.90;4.05;;;11.90;99.90;;;;;;5073957;28;20090;-21
2023/03/30 03:02:26;;;;;;;8.45;3.03;;;11.90;99.90;;;;;;5074236;28;20399;-21
2023/03/30 03:04:53;;;;;;;5.53;3.03;;;12.00;99.90;;;;;;5074525;28;20048;-22
2023/03/30 03:07:20;;;;;;;9.60;3.60;;;12.00;99.90;;;;;;5057381;28;20487;-21
2023/03/30 03:09:47;;;;;;;6.43;2.65;;;12.00;99.90;;;;;;5072933;28;20139;-21
2023/03/30 03:12:13;;;;;;;8.63;2.97;;;12.10;99.90;;;;;;5074345;28;20507;-21
2023/03/30 03:14:39;;;;;;;10.77;2.70;;;12.10;99.90;;;;;;5075129;28;20044;-21
2023/03/30 03:17:05;;;;;;;10.18;3.10;;;12.20;99.90;;;;;;5074179;28;20091;-21
2023/03/30 03:19:31;;;;;;;6.72;3.22;;;12.20;99.90;;;;;;5073498;28;20080;-21
2023/03/30 03:21:57;;;;;;;5.80;2.20;;;12.30;99.90;;;;;;5056687;28;20098;-22
2023/03/30 03:24:23;;;;;;;7.38;2.30;;;12.20;99.90;;;;;;5074174;28;20437;-22
2023/03/30 03:26:48;;;;;;;7.95;2.80;;;12.20;99.90;;;;;;5056160;28;20044;-21
2023/03/30 03:29:14;;;;;;;9.98;2.35;;;12.10;99.90;;;;;;5073969;28;20072;-21
2023/03/30 03:31:40;;;;;;;11.90;3.20;;;12.10;99.90;;;;;;5074536;28;20044;-21
2023/03/30 03:34:06;;;;;;;7.25;2.33;;;12.00;99.90;;;;;;5072723;28;20068;-21
2023/03/30 03:36:32;;;;;;;7.10;2.20;;;12.00;99.90;;;;;;5074498;28;20051;-21
2023/03/30 03:38:58;;;;;;;6.65;2.50;;;12.20;99.90;;;;;;5074478;28;20425;-21
2023/03/30 03:41:23;;;;;;;8.10;3.30;;;12.20;99.90;;;;;;5072588;28;20049;-21
2023/03/30 03:43:49;;;;;;;9.10;3.95;;;12.20;99.90;;;;;;5073809;28;20074;-21
2023/03/30 03:46:15;;;;;;;10.60;2.75;;;12.10;99.90;;;;;;5073426;28;20080;-21
2023/03/30 03:48:41;;;;;;;9.63;3.95;;;12.10;99.90;;;;;;5072591;28;20474;-21
2023/03/30 03:51:08;;;;;;;11.57;3.30;;;12.10;99.90;;;;;;5073738;28;20123;-21
2023/03/30 03:53:33;;;;;;;10.40;3.30;;;12.10;99.90;;;;;;5056334;28;20055;-21
2023/03/30 03:56:00;;;;;;;5.40;2.75;;;12.10;99.90;;;;;;5073685;28;20383;-21
2023/03/30 03:58:26;;;;;;;6.07;2.80;;;12.10;99.90;;;;;;5073660;28;20040;-21
2023/03/30 04:00:57;;;;;;;11.02;2.75;;;12.20;99.90;;;;;;5055934;28;20142;-21
2023/03/30 04:03:23;;;;;;;8.95;2.95;;;12.20;99.90;;;;;;5055861;28;20504;-21
2023/03/30 04:05:49;;;;;;;12.63;2.53;;;12.20;99.90;;;;;;5073614;28;20127;-21
2023/03/30 04:08:16;;;;;;;8.63;2.63;;;12.10;99.90;;;;;;5072973;28;20144;-21
2023/03/30 04:10:43;;;;;;;11.73;3.17;;;12.10;99.90;;;;;;5073253;28;20594;-21
2023/03/30 04:13:09;;;;;;;10.65;3.20;;;12.00;99.90;;;;;;5074350;28;20102;-21
2023/03/30 04:15:35;;;;;;;11.40;3.45;;;11.80;99.90;;;;;;5073148;28;20556;-21
2023/03/30 04:18:01;;;;;;;8.77;2.33;;;11.90;99.90;;;;;;5072531;28;20090;-21
2023/03/30 04:20:29;;;;;;;9.32;2.72;;;12.00;99.90;;;;;;5072507;28;20083;-21
2023/03/30 04:22:55;;;;;;;8.75;2.22;;;11.90;99.90;;;;;;5073452;28;20045;-21
2023/03/30 04:25:27;;;;;;;7.78;2.40;;;12.00;99.90;;;;;;5074022;28;20051;-21
2023/03/30 04:27:54;;;;;;;11.95;2.72;;;12.00;99.90;;;;;;5056574;28;20048;-21
2023/03/30 04:30:21;;;;;;;10.63;3.03;;;12.00;99.90;;;;;;5073394;28;20056;-21
2023/03/30 04:33:01;;;;;;;8.75;2.20;;;11.90;99.90;;;;;;5072059;28;20052;-21
2023/03/30 04:35:31;;;;;;;11.68;2.05;;;11.90;99.90;;;;;;5073442;28;20178;-21
2023/03/30 04:37:57;;;;;;;12.02;2.50;;;11.80;99.90;;;;;;5072093;28;20497;-21
2023/03/30 04:40:23;;;;;;;10.20;2.72;;;11.90;99.90;;;;;;5072655;28;20048;-21
2023/03/30 04:42:49;;;;;;;10.60;1.95;;;11.90;99.90;;;;;;5072275;28;20094;-21
2023/03/30 04:45:17;;;;;;;7.78;2.13;;;11.90;99.90;;;;;;5055828;28;20508;-21
2023/03/30 04:47:44;;;;;;;8.52;1.90;;;11.90;99.90;;;;;;5072991;28;20458;-21
2023/03/30 04:50:11;;;;;;;9.10;2.55;;;12.00;99.90;;;;;;5073199;28;20132;-21
2023/03/30 04:52:36;;;;;;;11.25;2.03;;;11.90;99.90;;;;;;5073177;28;20044;-21
2023/03/30 04:55:02;;;;;;;5.75;2.13;;;12.00;99.90;;;;;;5073111;28;20047;-21
2023/03/30 04:57:28;;;;;;;11.35;2.17;;;11.90;99.90;;;;;;5073114;28;20049;-21
2023/03/30 04:59:54;;;;;;;10.90;2.35;;;12.00;99.90;;;;;;5073057;28;20052;-21
2023/03/30 05:02:20;;;;;;;7.88;1.50;;;12.00;99.90;;;;;;5071597;28;20053;-20
2023/03/30 05:04:46;;;;;;;6.65;1.80;;;12.00;99.90;;;;;;5073867;28;20105;-21
2023/03/30 05:07:13;;;;;;;8.57;1.98;;;12.00;99.90;;;;;;5072963;28;20052;-21
2023/03/30 05:09:39;;;;;;;12.63;2.10;;;12.00;99.90;;;;;;5054948;28;20064;-20
2023/03/30 05:12:05;;;;;;;10.50;2.92;;;12.00;99.90;;;;;;5072057;28;20194;-20
2023/03/30 05:14:31;;;;;;;12.25;2.60;;;12.00;99.90;;;;;;5073458;28;20386;-21
2023/03/30 05:16:57;;;;;;;13.80;2.75;;;12.00;99.90;;;;;;5074969;28;20052;-20
2023/03/30 05:19:23;;;;;;;8.70;1.95;;;12.00;99.90;;;;;;5076487;28;20044;-21
2023/03/30 05:21:49;;;;;;;9.38;2.60;;;12.00;99.90;;;;;;5075251;28;20044;-21
2023/03/30 05:24:15;;;;;;;13.63;2.65;;;12.00;99.90;;;;;;5075073;28;20056;-20
2023/03/30 05:26:41;;;;;;;9.98;2.47;;;12.00;99.90;;;;;;5076272;28;20044;-21
2023/03/30 05:29:07;;;;;;;8.07;1.85;;;12.10;99.90;;;;;;5075000;28;20056;-21
2023/03/30 05:31:33;;;;;;;10.50;2.05;;;12.20;99.90;;;;;;5075075;28;20044;-20
2023/03/30 05:33:58;;;;;;;11.25;2.35;;;12.20;99.90;;;;;;5076242;28;20048;-20
2023/03/30 05:36:24;;;;;;;11.25;2.60;;;12.20;99.90;;;;;;5075881;28;20105;-20
2023/03/30 05:38:50;;;;;;;11.18;2.53;;;12.20;99.90;;;;;;5075013;28;20044;-20
2023/03/30 05:41:16;;;;;;;8.68;1.90;;;12.20;99.90;;;;;;5074936;28;20135;-20
2023/03/30 05:43:42;;;;;;;7.40;2.40;;;12.20;99.90;;;;;;5076150;28;20087;-20
2023/03/30 05:46:07;;;;;;;6.38;1.73;;;12.20;99.90;;;;;;5076000;28;20475;-20
2023/03/30 05:48:34;;;;;;;10.18;2.22;;;12.20;99.90;;;;;;5074869;28;20074;-20
2023/03/30 05:50:59;;;;;;;10.35;2.63;;;12.30;99.90;;;;;;5075269;28;20048;-20
2023/03/30 05:53:25;;;;;;;9.70;2.38;;;12.30;99.90;;;;;;5075950;28;20054;-20
2023/03/30 05:55:51;;;;;;;8.35;2.15;;;12.30;99.90;;;;;;5075720;28;20041;-20
2023/03/30 05:58:17;;;;;;;12.52;2.00;;;12.40;99.90;;;;;;5074611;28;20049;-20
2023/03/30 06:00:43;;;;;;;13.40;2.38;;;12.30;99.90;;;;;;5074787;28;20044;-20
2023/03/30 06:03:12;;;;;;;8.65;3.42;;;12.30;99.90;;;;;;5075691;28;20483;-20
2023/03/30 06:05:40;;;;;;;10.68;2.67;;;12.30;99.90;;;;;;5075660;28;20487;-20
2023/03/30 06:08:09;;;;;;;11.20;2.67;;;12.20;99.90;;;;;;5057913;28;20044;-20
2023/03/30 06:10:35;;;;;;;11.73;2.58;;;12.20;99.90;;;;;;5075920;28;20136;-20
2023/03/30 06:13:02;;;;;;;8.02;1.77;;;12.20;99.90;;;;;;5075550;28;20040;-20
2023/03/30 06:15:28;;;;;;;12.65;2.70;;;12.30;99.90;;;;;;5075447;28;20049;-20
2023/03/30 06:17:53;;;;;;;10.90;4.00;;;12.30;99.90;;;;;;5075116;28;20059;-20
2023/03/30 06:20:20;;;;;;;11.82;3.05;;;12.30;99.90;;;;;;5074426;28;20482;-20
2023/03/30 06:22:49;;;;;;;14.20;2.75;;;12.30;99.90;;;;;;5075398;28;20477;-20
2023/03/30 06:25:18;;;;;;;12.80;3.13;;;12.40;99.90;;;;;;5041272;28;20060;-20
2023/03/30 06:27:46;;;;;;;7.53;2.45;;;12.40;99.90;;;;;;5074011;28;20385;-20
2023/03/30 06:30:13;;;;;;;9.38;1.92;;;12.40;99.90;;;;;;5074358;28;20084;-20
2023/03/30 06:32:39;;;;;;;9.30;2.85;;;12.40;99.90;;;;;;5074055;28;20048;-20
2023/03/30 06:35:05;;;;;;;12.27;3.13;;;12.40;99.90;;;;;;5074185;28;20044;-20
2023/03/30 06:37:31;;;;;;;10.57;3.00;;;12.50;99.90;;;;;;5074216;28;20059;-20
2023/03/30 06:39:57;;;;;;;11.40;2.25;;;12.50;99.90;;;;;;5073916;28;20479;-20
2023/03/30 06:42:26;;;;;;;7.88;2.10;;;12.60;99.90;;;;;;5073607;28;20044;-20
2023/03/30 06:44:52;;;;;;;12.32;2.55;;;12.60;99.90;;;;;;5075251;28;20048;-20
2023/03/30 06:47:18;;;;;;;8.98;2.97;;;12.50;99.90;;;;;;5073564;28;20102;-20
2023/03/30 06:49:44;;;;;;;10.07;2.40;;;12.50;99.90;;;;;;5074566;28;20502;-20
2023/03/30 06:52:11;;;;;;;10.10;2.17;;;12.50;99.90;;;;;;5074863;28;20040;-20
2023/03/30 06:54:37;;;;;;;9.05;2.28;;;12.50;99.90;;;;;;5075180;28;20060;-20
2023/03/30 06:57:03;;;;;;;10.43;1.77;;;12.50;99.90;;;;;;5074477;28;20045;-20
2023/03/30 06:59:29;;;;;;;8.20;1.63;;;12.50;99.90;;;;;;5074481;28;20047;-20
2023/03/30 07:01:55;;;;;;;8.38;1.70;;;12.50;99.90;;;;;;5056560;28;20048;-20
2023/03/30 07:04:20;;;;;;;8.55;2.17;;;12.50;71.20;;;;;;5074366;28;20505;-20
2023/03/30 07:06:46;;;;;;;12.30;2.50;;;12.50;71.70;;;;;;5074326;28;20044;-20
2023/03/30 07:09:12;;;;;;;11.60;2.45;;;12.50;50.20;;;;;;5073651;28;20214;-20
2023/03/30 07:11:38;;;;;;;18.45;2.63;;;12.50;53.90;;;;;;5074180;28;20049;-20
2023/03/30 07:14:04;;;;;;;6.95;2.00;;;12.50;68.10;;;;;;5074206;28;20048;-20
2023/03/30 07:16:30;;;;;;;11.65;3.42;;;12.50;1.00;;;;;;5074196;28;20107;-20
2023/03/30 07:18:56;;;;;;;19.73;2.88;;;12.50;1.00;;;;;;5074794;28;20041;-20
2023/03/30 07:21:22;;;;;;;15.90;3.13;;;12.50;1.00;;;;;;5074209;28;20090;-20
2023/03/30 07:23:49;;;;;;;15.50;2.85;;;12.50;36.60;;;;;;5073177;28;20054;-20
2023/03/30 07:26:16;;;;;;;12.70;2.30;;;12.50;1.00;;;;;;5074100;28;20044;-20
2023/03/30 07:28:42;;;;;;;16.92;2.55;;;12.50;1.00;;;;;;5073941;28;20109;-20
2023/03/30 07:31:09;;;;;;;12.93;2.83;;;12.40;1.00;;;;;;5074108;28;20056;-20
2023/03/30 07:33:36;;;;;;;11.80;2.85;;;12.30;1.00;;;;;;5074812;28;20063;-20
2023/03/30 07:36:02;;;;;;;14.75;2.95;;;12.30;41.30;;;;;;5073965;28;20041;-20
2023/03/30 07:38:29;;;;;;;15.98;3.50;;;12.20;47.50;;;;;;5073517;28;20036;-20
2023/03/30 07:40:55;;;;;;;18.40;4.30;;;12.10;87.90;;;;;;5074163;28;20493;-20
2023/03/30 07:43:21;;;;;;;19.52;4.10;;;12.10;96.30;;;;;;5073851;28;20045;-20
2023/03/30 07:45:47;;;;;;;14.32;3.30;;;12.10;99.90;;;;;;5074391;28;20044;-20
2023/03/30 07:48:13;;;;;;;20.85;4.22;;;12.00;99.90;;;;;;5072577;28;20048;-20
2023/03/30 07:50:38;;;;;;;15.45;3.40;;;12.00;99.90;;;;;;5072620;28;20048;-20
2023/03/30 07:53:04;;;;;;;24.08;4.28;;;12.00;99.90;;;;;;5074012;28;20048;-20
2023/03/30 07:55:30;;;;;;;13.10;2.47;;;12.00;99.90;;;;;;5073719;28;20466;-20
2023/03/30 07:57:56;;;;;;;21.75;3.50;;;12.00;99.90;;;;;;5072552;28;20044;-20
2023/03/30 08:00:23;;;;;;;16.60;3.15;;;12.00;99.90;;;;;;5073122;28;20355;-20
2023/03/30 08:02:49;;;;;;;18.63;3.78;;;11.90;99.90;;;;;;5056151;28;20052;-20
2023/03/30 08:05:16;;;;;;;19.00;4.70;;;11.80;99.90;;;;;;5073588;28;20051;-19
2023/03/30 08:07:43;;;;;;;18.52;4.40;;;11.50;99.90;;;;;;5073567;28;20397;-19
2023/03/30 08:10:09;;;;;;;20.48;4.20;;;11.40;99.90;;;;;;5073394;28;20078;-19
2023/03/30 08:12:35;;;;;;;22.88;3.53;;;11.40;99.90;;;;;;5072113;28;20410;-19
2023/03/30 08:15:02;;;;;;;22.77;3.05;;;11.40;99.90;;;;;;5073550;28;20139;-19
2023/03/30 08:17:28;;;;;;;19.73;3.25;;;11.40;99.90;;;;;;5073429;28;20044;-20
2023/03/30 08:19:55;;;;;;;20.95;3.40;;;11.50;99.90;;;;;;5074310;28;20095;-20
2023/03/30 08:22:21;;;;;;;20.95;3.42;;;11.50;99.90;;;;;;5072307;28;20465;-20
2023/03/30 08:24:47;;;;;;;18.02;4.18;;;11.50;99.90;;;;;;5073432;28;20123;-20
2023/03/30 08:27:13;;;;;;;23.85;4.30;;;11.50;99.90;;;;;;5073120;28;20159;-20
2023/03/30 08:29:40;;;;;;;17.48;4.07;;;11.40;99.90;;;;;;5072970;28;20376;-19
2023/03/30 08:32:06;;;;;;;20.77;3.33;;;11.40;99.90;;;;;;5073948;28;20118;-19
2023/03/30 08:34:33;;;;;;;25.90;4.05;;;11.40;99.90;;;;;;5073637;28;20044;-20
2023/03/30 08:36:59;;;;;;;15.27;3.70;;;11.50;99.90;;;;;;5073408;28;20044;-20
2023/03/30 08:39:25;;;;;;;18.23;4.50;;;11.50;99.90;;;;;;5072727;28;20524;-20
2023/03/30 08:42:16;;;;;;;20.45;3.40;;;11.50;99.90;;;;;;5072136;28;20048;-20
2023/03/30 08:44:45;;;;;;;24.25;4.70;;;11.50;99.90;;;;;;5074081;28;20044;-20
2023/03/30 08:47:21;;;;;;;19.70;3.97;;;11.50;99.90;;;;;;5074081;28;20061;-20
2023/03/30 08:49:58;;;;;;;22.15;4.55;;;11.50;99.90;;;;;;5072064;28;20045;-20
2023/03/30 08:52:25;;;;;;;20.55;3.83;;;11.50;99.90;;;;;;5077076;28;20048;-20
2023/03/30 08:54:51;;;;;;;27.58;5.18;;;11.40;99.90;;;;;;5076917;28;20044;-20
2023/03/30 08:57:31;;;;;;;18.60;5.13;;;11.40;99.90;;;;;;5077243;28;20047;-20
2023/03/30 09:00:18;;;;;;;21.20;3.90;;;11.40;99.90;;;;;;5076099;28;20060;-20
2023/03/30 09:02:50;;;;;;;24.40;4.93;;;11.50;99.90;;;;;;5076829;28;20040;-20
2023/03/30 09:05:26;;;;;;;25.27;4.38;;;11.80;99.90;;;;;;5077423;28;20041;-20
2023/03/30 09:07:51;;;;;;;19.98;3.92;;;11.90;99.90;;;;;;5076515;28;20482;-20
2023/03/30 09:10:18;;;;;;;33.63;5.82;;;12.10;1.00;;;;;;5076696;28;20079;-20
2023/03/30 09:12:54;;;;;;;27.10;4.93;;;12.30;1.00;;;;;;5076268;28;20110;-20
2023/03/30 09:15:26;;;;;;;23.40;4.65;;;12.50;99.90;;;;;;5076629;28;20053;-20
2023/03/30 09:18:01;;;;;;;25.35;5.38;;;12.40;99.90;;;;;;5076650;28;20045;-20
2023/03/30 09:20:29;;;;;;;28.55;6.32;;;12.50;99.90;;;;;;5075449;28;20474;-20
2023/03/30 09:22:58;;;;;;;17.88;3.30;;;12.60;99.90;;;;;;5076505;28;20044;-20
2023/03/30 09:26:01;;;;;;;23.17;3.97;;;12.70;22.60;;;;;;5076443;28;20044;-20
2023/03/30 09:28:47;;;;;;;16.27;4.17;;;13.00;21.20;;;;;;5074402;28;20071;-20
2023/03/30 09:31:21;;;;;;;20.25;4.20;;;13.00;1.00;;;;;;5075423;28;20060;-20
2023/03/30 09:34:20;;;;;;;27.52;5.35;;;12.90;99.90;;;;;;5076893;28;20041;-20
2023/03/30 09:37:08;;;;;;;15.85;3.05;;;12.80;99.90;;;;;;5076806;28;20053;-20
2023/03/30 09:39:35;;;;;;;20.35;4.45;;;12.60;99.90;;;;;;5076484;28;20426;-20
2023/03/30 09:42:07;;;;;;;23.23;3.53;;;12.70;1.00;;;;;;5042089;28;20053;-20
2023/03/30 09:44:42;;;;;;;16.13;3.35;;;12.80;1.00;;;;;;5076192;28;20053;-20
2023/03/30 09:47:38;;;;;;;16.65;2.95;;;12.70;99.90;;;;;;5074883;28;20040;-20
2023/03/30 09:50:07;;;;;;;22.13;4.65;;;12.70;99.90;;;;;;5076616;28;20386;-20
2023/03/30 09:52:37;;;;;;;25.90;3.92;;;12.60;99.90;;;;;;5076006;28;20113;-20
2023/03/30 09:55:30;;;;;;;20.88;2.88;;;12.50;99.90;;;;;;5075939;28;20091;-20
2023/03/30 09:58:20;;;;;;;27.02;3.72;;;12.50;99.90;;;;;;5074772;28;20060;-20
2023/03/30 10:01:07;;;;;;;15.52;3.33;;;12.40;99.90;;;;;;5075980;28;20487;-20
2023/03/30 10:03:34;;;;;;;15.30;2.33;;;12.30;99.90;;;;;;5059037;28;20132;-20
2023/03/30 10:06:01;;;;;;;21.15;3.70;;;12.30;99.90;;;;;;5075031;28;20044;-20
2023/03/30 10:08:27;;;;;;;17.40;3.45;;;12.30;99.90;;;;;;5075781;28;20082;-20
2023/03/30 10:10:54;;;;;;;14.07;3.05;;;12.40;99.90;;;;;;5076476;28;20049;-20
2023/03/30 10:13:27;;;;;;;15.13;3.08;;;12.40;99.90;;;;;;5074876;28;20056;-20
2023/03/30 10:15:53;;;;;;;10.35;2.30;;;12.50;99.90;;;;;;5076055;28;20496;-20
2023/03/30 10:18:28;;;;;;;17.83;2.90;;;12.60;27.50;;;;;;5074262;28;20047;-20
2023/03/30 10:21:06;;;;;;;16.60;3.40;;;12.70;99.90;;;;;;5068717;28;20451;-20
2023/03/30 10:23:43;;;;;;;19.30;3.00;;;12.70;24.00;;;;;;5060998;28;20049;-20
2023/03/30 10:26:19;;;;;;;13.50;2.58;;;12.60;1.00;;;;;;5063073;28;20045;-20
2023/03/30 10:28:56;;;;;;;20.23;2.70;;;12.50;1.00;;;;;;5057110;28;20045;-20
2023/03/30 10:31:23;;;;;;;10.05;2.58;;;12.60;9.20;;;;;;5054888;28;20076;-20
2023/03/30 10:33:55;;;;;;;20.63;3.47;;;12.50;42.00;;;;;;5055444;28;20084;-20
2023/03/30 10:36:30;;;;;;;15.40;3.88;;;12.60;75.60;;;;;;5055976;28;20056;-20
2023/03/30 10:39:07;;;;;;;17.30;3.58;;;12.50;99.90;;;;;;5055922;28;20119;-20
2023/03/30 10:41:36;;;;;;;22.60;3.92;;;12.50;99.90;;;;;;5054938;28;20499;-21
2023/03/30 10:44:25;;;;;;;18.65;3.97;;;12.70;99.90;;;;;;5054972;28;20127;-20
2023/03/30 10:46:59;;;;;;;20.75;4.15;;;12.70;99.90;;;;;;5054949;28;20102;-20
2023/03/30 10:49:38;;;;;;;20.42;3.88;;;12.70;1.00;;;;;;5054840;28;20123;-20
2023/03/30 10:52:34;;;;;;;20.20;3.63;;;12.70;99.90;;;;;;5055113;28;20518;-20
2023/03/30 10:55:16;;;;;;;28.67;6.05;;;12.70;1.00;;;;;;5054775;28;20049;-20
2023/03/30 10:58:03;;;;;;;18.42;3.75;;;12.80;1.00;;;;;;5054700;28;20091;-20
2023/03/30 11:01:05;;;;;;;14.35;3.65;;;12.70;99.90;;;;;;5054644;28;20445;-20
2023/03/30 11:03:32;;;;;;;20.23;3.30;;;12.70;1.00;;;;;;5042838;28;20525;-20
2023/03/30 11:06:23;;;;;;;18.45;3.97;;;13.00;1.00;;;;;;5053568;28;20091;-20
2023/03/30 11:08:52;;;;;;;21.02;4.13;;;13.20;1.00;;;;;;5054480;28;20545;-20
2023/03/30 11:11:32;;;;;;;22.38;3.85;;;13.10;99.90;;;;;;5054342;28;20051;-20
2023/03/30 11:14:06;;;;;;;17.15;4.10;;;13.00;1.00;;;;;;5054702;28;20107;-20
2023/03/30 11:16:58;;;;;;;18.95;4.25;;;13.40;1.00;;;;;;5054772;28;20110;-20
2023/03/30 11:19:31;;;;;;;16.45;3.50;;;13.80;99.90;;;;;;5054821;28;20044;-20
2023/03/30 11:22:29;;;;;;;20.67;4.80;;;13.60;99.90;;;;;;5053403;28;20091;-20
2023/03/30 11:24:55;;;;;;;15.43;3.00;;;13.30;99.90;;;;;;5052650;28;20057;-20
2023/03/30 11:27:39;;;;;;;14.43;3.28;;;13.10;99.90;;;;;;5037329;28;20053;-20
2023/03/30 11:30:15;;;;;;;15.27;3.00;;;13.00;1.00;;;;;;5054044;28;20048;-20
2023/03/30 11:32:45;;;;;;;11.48;2.53;;;13.00;1.00;;;;;;5054892;28;20051;-20
2023/03/30 11:35:30;;;;;;;19.08;3.85;;;13.10;99.90;;;;;;5052720;28;20132;-20
2023/03/30 11:38:09;;;;;;;20.38;3.45;;;13.10;99.90;;;;;;5054661;28;20049;-20
2023/03/30 11:41:21;;;;;;;16.75;3.97;;;13.10;99.90;;;;;;5053443;28;20386;-20
2023/03/30 11:43:49;;;;;;;12.10;2.38;;;13.20;1.00;;;;;;5043922;28;20135;-20
2023/03/30 11:46:19;;;;;;;19.67;3.10;;;13.20;1.00;;;;;;5052670;28;20045;-20
2023/03/30 11:49:03;;;;;;;17.95;2.88;;;13.10;99.90;;;;;;5053737;28;20052;-20
2023/03/30 11:51:51;;;;;;;12.50;2.53;;;13.10;1.00;;;;;;5054102;28;20052;-20
2023/03/30 11:54:29;;;;;;;20.13;3.28;;;13.20;99.90;;;;;;5037042;28;20053;-20
2023/03/30 11:57:36;;;;;;;10.32;2.80;;;13.70;99.90;;;;;;5052583;28;20052;-20
2023/03/30 12:00:13;;;;;;;13.88;3.47;;;13.80;99.90;;;;;;5050548;28;20376;-20
2023/03/30 12:03:13;;;;;;;21.52;3.10;;;13.80;99.90;;;;;;5053674;28;20056;-20
2023/03/30 12:05:49;;;;;;;15.07;4.05;;;13.90;80.50;;;;;;5054228;28;20114;-20
2023/03/30 12:08:23;;;;;;;15.52;3.50;;;13.90;99.90;;;;;;5053287;28;20057;-20
2023/03/30 12:11:13;;;;;;;18.27;3.30;;;14.10;1.00;;;;;;5052380;28;20140;-20
2023/03/30 12:13:39;;;;;;;18.88;4.15;;;14.10;1.00;;;;;;5049122;28;20068;-20
2023/03/30 12:16:17;;;;;;;17.38;2.83;;;14.00;1.00;;;;;;5053357;28;20072;-20
2023/03/30 12:19:08;;;;;;;14.98;3.47;;;13.90;1.00;;;;;;5054087;28;20043;-20
2023/03/30 12:21:51;;;;;;;11.88;1.98;;;13.90;99.90;;;;;;5053765;28;20052;-20
2023/03/30 12:24:19;;;;;;;15.18;3.08;;;13.80;1.00;;;;;;5053980;28;20475;-20
2023/03/30 12:26:47;;;;;;;16.85;3.03;;;13.60;18.70;;;;;;5058350;28;20049;-20
2023/03/30 12:29:16;;;;;;;14.18;3.00;;;13.80;99.90;;;;;;5057508;28;20049;-21
2023/03/30 12:32:03;;;;;;;14.18;2.95;;;14.50;1.00;;;;;;5056487;28;20091;-20
2023/03/30 12:34:39;;;;;;;22.63;4.28;;;14.60;99.90;;;;;;5056758;28;20102;-21
2023/03/30 12:37:21;;;;;;;11.57;2.40;;;14.40;99.90;;;;;;5057356;28;20138;-20
2023/03/30 12:40:05;;;;;;;14.98;4.18;;;14.10;99.90;;;;;;5058147;28;20103;-20
2023/03/30 12:42:38;;;;;;;18.08;3.63;;;13.80;99.90;;;;;;5057532;28;20056;-20
2023/03/30 12:45:23;;;;;;;14.77;3.08;;;14.00;1.00;;;;;;5057257;28;20075;-21
2023/03/30 12:48:13;;;;;;;22.23;3.83;;;14.30;99.90;;;;;;5057125;28;20096;-20
2023/03/30 12:51:00;;;;;;;11.68;2.97;;;13.90;1.00;;;;;;5057109;28;20148;-21
2023/03/30 12:53:44;;;;;;;19.60;4.47;;;13.90;99.90;;;;;;5056087;28;20047;-20
2023/03/30 12:56:25;;;;;;;18.95;3.92;;;14.20;99.90;;;;;;5057612;28;20095;-20
2023/03/30 12:59:08;;;;;;;16.08;3.00;;;14.30;99.90;;;;;;5056038;28;20056;-20
2023/03/30 13:01:36;;;;;;;20.75;3.67;;;14.90;1.00;;;;;;5057013;28;20052;-21
2023/03/30 13:04:15;;;;;;;23.75;4.60;;;15.00;99.90;;;;;;5056835;28;20053;-20
2023/03/30 13:06:55;;;;;;;15.18;4.53;;;14.90;99.90;;;;;;5056860;28;20088;-20